createdAt,value
2019-03-15T00:01:01.403Z,5.90
2019-03-15T00:03:05.130Z,5.90
2019-03-15T00:05:08.808Z,5.90
2019-03-15T00:07:12.463Z,5.90
2019-03-15T00:09:16.007Z,5.90
2019-03-15T00:11:18.879Z,5.90
2019-03-15T00:13:22.480Z,6.00
2019-03-15T00:15:25.306Z,6.00
2019-03-15T00:17:28.888Z,6.00
2019-03-15T00:19:31.681Z,6.00
2019-03-15T00:21:35.287Z,5.90
2019-03-15T00:23:38.910Z,5.90
2019-03-15T00:25:42.456Z,5.90
2019-03-15T00:27:45.258Z,5.80
2019-03-15T00:29:48.816Z,5.90
2019-03-15T00:31:51.702Z,5.80
2019-03-15T00:33:55.291Z,5.80
2019-03-15T00:35:58.054Z,5.80
2019-03-15T00:38:01.628Z,5.70
2019-03-15T00:40:05.969Z,5.80
2019-03-15T00:42:09.519Z,5.80
2019-03-15T00:44:12.335Z,5.80
2019-03-15T00:46:15.919Z,5.80
2019-03-15T00:48:19.478Z,5.80
2019-03-15T00:50:22.358Z,5.80
2019-03-15T00:52:25.916Z,5.80
2019-03-15T00:54:28.707Z,5.80
2019-03-15T00:56:32.293Z,5.70
2019-03-15T00:58:35.880Z,5.70
2019-03-15T01:00:39.647Z,5.60
2019-03-15T01:02:44.365Z,5.60
2019-03-15T01:04:48.137Z,5.60
2019-03-15T01:06:51.687Z,5.60
2019-03-15T01:08:54.473Z,5.70
2019-03-15T01:10:58.091Z,5.70
2019-03-15T01:13:01.657Z,5.70
2019-03-15T01:15:09.061Z,5.80
2019-03-15T01:17:12.606Z,5.80
2019-03-15T01:19:16.166Z,5.80
2019-03-15T01:21:19.273Z,5.80
2019-03-15T01:23:22.872Z,5.90
2019-03-15T01:25:25.646Z,5.90
2019-03-15T01:27:29.223Z,6.00
2019-03-15T01:29:32.791Z,6.10
2019-03-15T01:31:35.598Z,6.10
2019-03-15T01:33:39.191Z,6.10
2019-03-15T01:35:42.762Z,6.10
2019-03-15T01:37:45.545Z,6.10
2019-03-15T01:39:49.120Z,6.10
2019-03-15T01:41:52.682Z,6.10
2019-03-15T01:43:55.490Z,6.10
2019-03-15T01:45:59.056Z,6.10
2019-03-15T01:48:01.838Z,6.00
2019-03-15T01:50:07.964Z,6.00
2019-03-15T01:52:11.620Z,6.00
2019-03-15T01:54:15.302Z,6.00
2019-03-15T01:56:18.825Z,5.90
2019-03-15T01:58:21.692Z,5.90
2019-03-15T02:00:25.396Z,5.90
2019-03-15T02:02:28.983Z,5.90
2019-03-15T02:04:32.535Z,5.90
2019-03-15T02:06:35.317Z,5.90
2019-03-15T02:08:38.903Z,5.90
2019-03-15T02:10:42.459Z,5.90
2019-03-15T02:12:45.236Z,5.90
2019-03-15T02:14:48.827Z,5.90
2019-03-15T02:16:52.435Z,6.00
2019-03-15T02:18:55.989Z,6.00
2019-03-15T02:20:58.898Z,6.00
2019-03-15T02:23:02.573Z,6.00
2019-03-15T02:25:06.789Z,6.10
2019-03-15T02:27:10.376Z,6.10
2019-03-15T02:29:13.938Z,6.10
2019-03-15T02:31:16.698Z,6.10
2019-03-15T02:33:20.299Z,6.10
2019-03-15T02:35:23.939Z,6.10
2019-03-15T02:37:27.528Z,6.00
2019-03-15T02:39:31.183Z,6.10
2019-03-15T02:41:34.778Z,6.00
2019-03-15T02:43:38.328Z,6.00
2019-03-15T02:45:41.127Z,6.10
2019-03-15T02:47:46.309Z,6.10
2019-03-15T02:49:49.925Z,6.00
2019-03-15T02:51:52.702Z,6.00
2019-03-15T02:53:56.357Z,6.00
2019-03-15T02:55:59.911Z,6.10
2019-03-15T02:58:02.708Z,6.10
2019-03-15T03:00:08.303Z,6.00
2019-03-15T03:02:11.940Z,6.00
2019-03-15T03:04:15.504Z,5.90
2019-03-15T03:06:18.322Z,5.90
2019-03-15T03:08:22.048Z,5.90
2019-03-15T03:10:25.625Z,5.90
2019-03-15T03:12:28.397Z,5.90
2019-03-15T03:14:31.981Z,5.90
2019-03-15T03:16:35.545Z,5.90
2019-03-15T03:18:38.343Z,5.90
2019-03-15T03:20:41.944Z,5.90
2019-03-15T03:22:45.500Z,5.90
2019-03-15T03:24:48.279Z,5.80
2019-03-15T03:26:52.054Z,5.90
2019-03-15T03:28:55.650Z,5.80
2019-03-15T03:30:59.267Z,5.90
2019-03-15T03:33:02.808Z,5.90
2019-03-15T03:35:06.055Z,5.90
2019-03-15T03:37:09.727Z,5.90
2019-03-15T03:39:13.273Z,5.90
2019-03-15T03:41:16.037Z,5.90
2019-03-15T03:43:19.811Z,5.80
2019-03-15T03:45:23.618Z,5.90
2019-03-15T03:47:27.203Z,5.90
2019-03-15T03:49:30.031Z,5.90
2019-03-15T03:51:33.635Z,5.90
2019-03-15T03:53:37.242Z,5.90
2019-03-15T03:55:40.778Z,5.90
2019-03-15T03:57:43.550Z,5.80
2019-03-15T03:59:47.275Z,5.90
2019-03-15T04:01:50.912Z,5.80
2019-03-15T04:03:54.663Z,5.80
2019-03-15T04:05:58.212Z,5.80
2019-03-15T04:08:01.058Z,5.80
2019-03-15T04:10:07.901Z,5.80
2019-03-15T04:12:11.442Z,5.80
2019-03-15T04:14:14.274Z,5.80
2019-03-15T04:16:17.865Z,5.80
2019-03-15T04:18:21.476Z,5.80
2019-03-15T04:20:25.049Z,5.80
2019-03-15T04:22:28.614Z,5.80
2019-03-15T04:24:31.399Z,5.80
2019-03-15T04:26:34.985Z,5.80
2019-03-15T04:28:38.547Z,5.70
2019-03-15T04:30:42.139Z,5.70
2019-03-15T04:32:45.737Z,5.70
2019-03-15T04:34:49.291Z,5.70
2019-03-15T04:36:52.102Z,5.70
2019-03-15T04:38:55.687Z,5.70
2019-03-15T04:40:58.471Z,5.70
2019-03-15T04:43:02.041Z,5.70
2019-03-15T04:45:07.636Z,5.70
2019-03-15T04:47:11.233Z,5.70
2019-03-15T04:49:14.781Z,5.70
2019-03-15T04:51:17.551Z,5.70
2019-03-15T04:53:21.147Z,5.70
2019-03-15T04:55:24.699Z,5.70
2019-03-15T04:57:27.586Z,5.80
2019-03-15T04:59:31.072Z,5.80
2019-03-15T05:01:33.894Z,5.80
2019-03-15T05:03:37.456Z,5.80
2019-03-15T05:05:41.931Z,5.90
2019-03-15T05:07:45.495Z,5.90
2019-03-15T05:09:48.291Z,5.90
2019-03-15T05:11:51.872Z,5.90
2019-03-15T05:13:58.554Z,5.90
2019-03-15T05:16:00.636Z,5.90
2019-03-15T05:18:03.427Z,6.00
2019-03-15T05:20:09.055Z,6.00
2019-03-15T05:22:12.607Z,6.00
2019-03-15T05:24:15.399Z,6.00
2019-03-15T05:26:18.983Z,5.90
2019-03-15T05:28:22.563Z,5.90
2019-03-15T05:30:25.372Z,6.00
2019-03-15T05:32:31.015Z,6.00
2019-03-15T05:34:34.139Z,6.00
2019-03-15T05:36:36.918Z,6.00
2019-03-15T05:38:40.479Z,6.00
2019-03-15T05:40:43.296Z,6.00
2019-03-15T05:42:47.101Z,6.00
2019-03-15T05:44:50.664Z,6.00
2019-03-15T05:46:53.444Z,6.10
2019-03-15T05:48:57.054Z,6.10
2019-03-15T05:51:00.609Z,6.10
2019-03-15T05:53:03.455Z,6.10
2019-03-15T05:55:12.252Z,6.10
2019-03-15T05:57:15.858Z,6.10
2019-03-15T05:59:19.460Z,6.20
2019-03-15T06:01:23.020Z,6.20
2019-03-15T06:03:25.873Z,6.20
2019-03-15T06:05:29.498Z,6.20
2019-03-15T06:07:33.127Z,6.20
2019-03-15T06:09:36.748Z,6.20
2019-03-15T06:11:40.318Z,6.30
2019-03-15T06:13:43.089Z,6.30
2019-03-15T06:15:46.727Z,6.30
2019-03-15T06:17:50.392Z,6.30
2019-03-15T06:19:53.928Z,6.30
2019-03-15T06:21:56.711Z,6.30
2019-03-15T06:24:00.308Z,6.40
2019-03-15T06:26:03.111Z,6.40
2019-03-15T06:28:06.668Z,6.40
2019-03-15T06:30:10.818Z,6.40
2019-03-15T06:32:13.612Z,6.40
2019-03-15T06:34:17.167Z,6.40
2019-03-15T06:36:19.993Z,6.50
2019-03-15T06:38:23.536Z,6.50
2019-03-15T06:40:26.318Z,6.50
2019-03-15T06:42:29.843Z,6.50
2019-03-15T06:44:33.412Z,6.50
2019-03-15T06:46:36.197Z,6.60
2019-03-15T06:48:39.799Z,6.60
2019-03-15T06:50:43.359Z,6.60
2019-03-15T06:52:46.207Z,6.50
2019-03-15T06:54:49.787Z,6.50
2019-03-15T06:56:52.642Z,6.50
2019-03-15T06:58:56.215Z,6.60
2019-03-15T07:00:59.024Z,6.60
2019-03-15T07:03:02.599Z,6.60
2019-03-15T07:05:06.460Z,6.70
2019-03-15T07:07:10.455Z,6.70
2019-03-15T07:09:14.180Z,6.80
2019-03-15T07:11:17.066Z,6.80
2019-03-15T07:13:20.626Z,6.80
2019-03-15T07:15:23.432Z,6.80
2019-03-15T07:17:27.091Z,6.90
2019-03-15T07:19:30.874Z,6.90
2019-03-15T07:21:36.860Z,6.90
2019-03-15T07:23:39.817Z,6.90
2019-03-15T07:25:42.602Z,7.00
2019-03-15T07:27:46.197Z,7.10
2019-03-15T07:29:49.000Z,7.10
2019-03-15T07:31:52.559Z,7.10
2019-03-15T07:33:55.324Z,7.20
2019-03-15T07:35:59.592Z,7.20
2019-03-15T07:38:03.420Z,7.30
2019-03-15T07:40:08.090Z,7.30
2019-03-15T07:42:11.640Z,7.30
2019-03-15T07:44:14.494Z,7.40
2019-03-15T07:46:18.068Z,7.40
2019-03-15T07:48:22.642Z,7.40
2019-03-15T07:50:26.123Z,7.40
2019-03-15T07:52:29.692Z,7.50
2019-03-15T07:54:37.812Z,7.50
2019-03-15T07:56:37.735Z,7.40
2019-03-15T07:58:41.842Z,7.50
2019-03-15T08:00:45.496Z,7.50
2019-03-15T08:02:49.087Z,7.60
2019-03-15T08:04:51.944Z,7.60
2019-03-15T08:06:55.515Z,7.70
2019-03-15T08:08:58.286Z,7.70
2019-03-15T08:11:01.881Z,7.70
2019-03-15T08:13:04.651Z,7.70
2019-03-15T08:15:13.019Z,7.80
2019-03-15T08:17:16.576Z,7.80
2019-03-15T08:19:19.342Z,7.90
2019-03-15T08:21:22.972Z,7.90
2019-03-15T08:23:25.734Z,8.00
2019-03-15T08:25:29.319Z,8.10
2019-03-15T08:27:32.111Z,8.10
2019-03-15T08:29:35.699Z,8.00
2019-03-15T08:31:38.477Z,8.00
2019-03-15T08:33:42.043Z,8.00
2019-03-15T08:35:44.849Z,8.00
2019-03-15T08:37:48.872Z,8.00
2019-03-15T08:39:52.393Z,8.00
2019-03-15T08:41:55.202Z,8.00
2019-03-15T08:43:58.828Z,8.00
2019-03-15T08:46:02.949Z,8.10
2019-03-15T08:48:06.860Z,8.20
2019-03-15T08:50:14.569Z,8.20
2019-03-15T08:52:16.450Z,8.30
2019-03-15T08:54:19.222Z,8.20
2019-03-15T08:56:22.808Z,8.10
2019-03-15T08:58:25.606Z,8.10
2019-03-15T09:00:29.220Z,8.20
2019-03-15T09:02:32.038Z,8.30
2019-03-15T09:04:35.607Z,8.50
2019-03-15T09:06:40.985Z,8.40
2019-03-15T09:08:43.610Z,8.40
2019-03-15T09:10:46.399Z,8.40
2019-03-15T09:12:50.360Z,8.40
2019-03-15T09:14:53.946Z,8.40
2019-03-15T09:16:56.745Z,8.50
2019-03-15T09:19:00.324Z,8.40
2019-03-15T09:21:03.119Z,8.50
2019-03-15T09:23:06.688Z,8.60
2019-03-15T09:25:19.247Z,8.60
2019-03-15T09:27:16.332Z,8.70
2019-03-15T09:29:19.923Z,8.70
2019-03-15T09:31:22.708Z,8.70
2019-03-15T09:33:26.307Z,8.80
2019-03-15T09:35:29.128Z,8.70
2019-03-15T09:37:32.684Z,8.70
2019-03-15T09:39:35.501Z,8.80
2019-03-15T09:41:40.144Z,8.90
2019-03-15T09:43:45.368Z,9.00
2019-03-15T09:45:49.306Z,9.20
2019-03-15T09:47:52.892Z,9.30
2019-03-15T09:49:55.667Z,9.40
2019-03-15T09:51:59.253Z,9.40
2019-03-15T09:54:02.041Z,9.20
2019-03-15T09:56:05.633Z,9.30
2019-03-15T09:58:08.394Z,9.30
2019-03-15T10:00:19.069Z,9.20
2019-03-15T10:02:30.342Z,9.10
2019-03-15T10:04:27.833Z,9.00
2019-03-15T10:06:30.627Z,9.10
2019-03-15T10:08:34.194Z,9.20
2019-03-15T10:10:36.970Z,9.20
2019-03-15T10:12:41.833Z,9.30
2019-03-15T10:14:45.427Z,9.30
2019-03-15T10:16:48.293Z,9.30
2019-03-15T10:18:51.828Z,9.10
2019-03-15T10:20:54.603Z,9.00
2019-03-15T10:23:06.036Z,9.00
2019-03-15T10:25:04.283Z,8.90
2019-03-15T10:27:07.931Z,9.00
2019-03-15T10:29:15.655Z,9.20
2019-03-15T10:31:16.817Z,9.30
2019-03-15T10:33:19.668Z,9.30
2019-03-15T10:35:23.219Z,9.30
2019-03-15T10:37:26.011Z,9.40
2019-03-15T10:39:29.589Z,9.40
2019-03-15T10:41:32.458Z,9.50
2019-03-15T10:43:36.026Z,9.80
2019-03-15T10:45:38.810Z,9.80
2019-03-15T10:47:42.877Z,9.80
2019-03-15T10:49:46.578Z,9.50
2019-03-15T10:51:49.359Z,9.60
2019-03-15T10:53:55.061Z,9.80
2019-03-15T10:56:00.456Z,9.80
2019-03-15T10:58:03.386Z,10.10
2019-03-15T11:00:07.918Z,10.40
2019-03-15T11:02:11.561Z,10.60
2019-03-15T11:04:14.413Z,10.60
2019-03-15T11:06:18.075Z,10.30
2019-03-15T11:08:24.077Z,10.20
2019-03-15T11:10:26.140Z,10.30
2019-03-15T11:12:28.935Z,10.20
2019-03-15T11:14:32.515Z,10.10
2019-03-15T11:16:35.328Z,10.30
2019-03-15T11:18:38.911Z,10.10
2019-03-15T11:20:41.684Z,10.00
2019-03-15T11:22:45.281Z,10.00
2019-03-15T11:24:48.035Z,10.10
2019-03-15T11:26:51.621Z,10.10
2019-03-15T11:28:54.409Z,10.00
2019-03-15T11:31:00.604Z,10.00
2019-03-15T11:33:03.201Z,10.00
2019-03-15T11:35:07.556Z,9.90
2019-03-15T11:37:10.363Z,9.90
2019-03-15T11:39:13.923Z,9.90
2019-03-15T11:41:16.754Z,10.00
2019-03-15T11:43:20.321Z,9.90
2019-03-15T11:45:23.168Z,9.80
2019-03-15T11:47:26.839Z,9.70
2019-03-15T11:49:29.604Z,9.70
2019-03-15T11:51:33.174Z,9.80
2019-03-15T11:53:35.979Z,9.70
2019-03-15T11:55:39.716Z,9.70
2019-03-15T11:57:43.277Z,9.70
2019-03-15T11:59:46.056Z,9.70
2019-03-15T12:02:03.174Z,9.70
2019-03-15T12:03:54.843Z,9.80
2019-03-15T12:05:57.687Z,9.70
2019-03-15T12:08:01.254Z,9.90
2019-03-15T12:10:08.565Z,10.00
2019-03-15T12:12:12.394Z,10.00
2019-03-15T12:14:15.963Z,10.10
2019-03-15T12:16:18.763Z,10.20
2019-03-15T12:18:22.337Z,10.30
2019-03-15T12:20:25.123Z,10.10
2019-03-15T12:22:28.721Z,10.10
2019-03-15T12:24:31.519Z,10.20
2019-03-15T12:26:40.116Z,10.20
2019-03-15T12:28:40.296Z,10.20
2019-03-15T12:30:43.380Z,10.30
2019-03-15T12:32:47.039Z,10.40
2019-03-15T12:34:49.863Z,10.50
2019-03-15T12:36:53.441Z,10.50
2019-03-15T12:38:58.437Z,10.50
2019-03-15T12:41:00.679Z,10.60
2019-03-15T12:43:04.401Z,10.50
2019-03-15T12:45:10.334Z,10.40
2019-03-15T12:47:13.895Z,10.30
2019-03-15T12:49:16.679Z,10.10
2019-03-15T12:51:31.573Z,10.00
2019-03-15T12:53:25.469Z,10.10
2019-03-15T12:55:28.260Z,10.20
2019-03-15T12:57:31.915Z,10.30
2019-03-15T12:59:34.698Z,10.60
2019-03-15T13:01:38.288Z,10.80
2019-03-15T13:03:41.110Z,10.90
2019-03-15T13:05:44.699Z,11.10
2019-03-15T13:07:47.484Z,11.00
2019-03-15T13:09:51.075Z,10.90
2019-03-15T13:11:53.890Z,10.80
2019-03-15T13:13:57.525Z,10.60
2019-03-15T13:16:00.346Z,10.60
2019-03-15T13:18:04.272Z,10.70
2019-03-15T13:20:10.949Z,10.80
2019-03-15T13:22:14.537Z,10.80
2019-03-15T13:24:17.322Z,10.80
2019-03-15T13:26:20.894Z,10.80
2019-03-15T13:28:23.673Z,10.80
2019-03-15T13:30:27.339Z,10.80
2019-03-15T13:32:30.158Z,10.90
2019-03-15T13:34:33.699Z,11.00
2019-03-15T13:36:36.513Z,11.00
2019-03-15T13:38:40.072Z,11.10
2019-03-15T13:40:42.959Z,11.00
2019-03-15T13:42:46.606Z,11.00
2019-03-15T13:44:49.424Z,10.90
2019-03-15T13:46:52.973Z,10.90
2019-03-15T13:48:55.748Z,10.90
2019-03-15T13:50:59.369Z,10.90
2019-03-15T13:53:02.159Z,10.80
2019-03-15T13:55:06.183Z,10.80
2019-03-15T13:57:20.462Z,10.90
2019-03-15T13:59:14.984Z,10.90
2019-03-15T14:01:17.779Z,10.90
2019-03-15T14:03:21.398Z,10.70
2019-03-15T14:05:24.152Z,10.70
2019-03-15T14:07:27.735Z,10.70
2019-03-15T14:09:30.526Z,10.70
2019-03-15T14:11:34.145Z,10.60
2019-03-15T14:13:36.953Z,10.60
2019-03-15T14:15:40.526Z,10.60
2019-03-15T14:17:43.319Z,10.60
2019-03-15T14:19:46.879Z,10.70
2019-03-15T14:21:49.674Z,10.80
2019-03-15T14:23:53.302Z,10.90
2019-03-15T20:04:22.168Z,9.00
2019-03-15T20:08:47.015Z,8.90
2019-03-15T20:10:49.904Z,8.90
2019-03-15T20:12:53.567Z,8.80
2019-03-15T20:14:57.218Z,8.70
2019-03-15T20:17:00.783Z,8.60
2019-03-15T20:19:03.659Z,8.50
2019-03-15T20:21:07.293Z,8.40
2019-03-15T20:23:10.087Z,8.20
2019-03-15T20:25:16.976Z,8.10
2019-03-15T20:27:20.546Z,8.00
2019-03-15T20:29:23.326Z,7.90
2019-03-15T20:31:26.993Z,7.90
2019-03-15T20:33:30.750Z,7.80
2019-03-15T20:35:34.318Z,7.80
2019-03-15T20:37:37.193Z,7.80
2019-03-15T20:39:40.926Z,7.80
2019-03-15T20:41:44.688Z,7.80
2019-03-15T20:43:48.486Z,7.80
2019-03-15T20:45:52.062Z,7.80
2019-03-15T20:47:54.861Z,7.80
2019-03-15T20:49:58.419Z,7.80
2019-03-15T20:52:01.281Z,7.80
2019-03-15T20:54:05.158Z,7.80
2019-03-15T20:56:08.781Z,7.70
2019-03-15T20:58:12.383Z,7.70
2019-03-15T21:00:16.030Z,7.70
2019-03-15T21:02:19.580Z,7.70
2019-03-15T21:04:22.370Z,7.70
2019-03-15T21:06:25.949Z,7.70
2019-03-15T21:08:28.836Z,7.70
2019-03-15T21:10:32.469Z,7.80
2019-03-15T21:12:36.019Z,7.80
2019-03-15T21:14:39.105Z,7.80
2019-03-15T21:16:42.816Z,7.80
2019-03-15T21:18:46.462Z,7.80
2019-03-15T21:20:50.211Z,7.80
2019-03-15T21:22:53.990Z,7.80
2019-03-15T21:24:57.623Z,7.70
2019-03-15T21:27:01.184Z,7.80
2019-03-15T21:29:04.063Z,7.80
2019-03-15T21:31:07.721Z,7.80
2019-03-15T21:33:11.367Z,7.80
2019-03-15T21:35:15.051Z,7.80
2019-03-15T21:37:18.789Z,7.70
2019-03-15T21:39:24.207Z,7.70
2019-03-15T21:41:27.552Z,7.80
2019-03-15T21:43:30.360Z,7.80
2019-03-15T21:45:34.688Z,7.70
2019-03-15T21:47:38.457Z,7.80
2019-03-15T21:49:42.111Z,7.80
2019-03-15T21:51:44.932Z,7.80
2019-03-15T21:53:48.515Z,7.80
2019-03-15T21:55:51.306Z,7.80
2019-03-15T21:57:54.892Z,7.80
2019-03-15T22:00:00.685Z,7.80
2019-03-15T22:02:07.048Z,8.00
2019-03-15T22:04:13.464Z,8.00
2019-03-15T22:06:21.041Z,8.10
2019-03-15T22:08:27.681Z,8.20
2019-03-15T22:10:33.531Z,8.20
2019-03-15T22:12:40.185Z,8.20
2019-03-15T22:14:48.015Z,8.20
2019-03-15T22:16:54.295Z,8.30
2019-03-15T22:18:59.967Z,8.40
2019-03-15T22:21:06.018Z,8.50
2019-03-15T22:23:09.601Z,8.90
2019-03-15T22:25:12.449Z,8.90
2019-03-15T22:27:16.024Z,8.90
2019-03-15T22:29:18.836Z,8.90
2019-03-15T22:31:22.813Z,9.00
2019-03-15T22:33:26.340Z,9.00
2019-03-15T22:35:29.321Z,9.00
2019-03-15T22:37:32.892Z,9.00
2019-03-15T22:39:35.662Z,9.10
2019-03-15T22:41:39.243Z,9.10
2019-03-15T22:43:42.060Z,9.10
2019-03-15T22:45:45.621Z,9.00
2019-03-15T22:47:51.382Z,9.00
2019-03-15T22:49:53.734Z,8.90
2019-03-15T22:51:57.298Z,8.90
2019-03-15T22:54:00.090Z,8.90
2019-03-15T22:56:03.761Z,8.90
2019-03-15T22:58:07.472Z,8.90
2019-03-15T23:00:21.012Z,8.90
2019-03-15T23:02:25.586Z,8.80
2019-03-15T23:04:29.273Z,8.80
2019-03-15T23:06:32.136Z,8.80
2019-03-15T23:08:35.733Z,8.80
2019-03-15T23:10:38.584Z,8.70
2019-03-15T23:12:42.157Z,8.70
2019-03-15T23:14:44.939Z,8.70
2019-03-15T23:16:48.528Z,8.70
2019-03-15T23:18:51.321Z,8.60
2019-03-15T23:20:54.905Z,8.60
2019-03-15T23:22:57.692Z,8.60
2019-03-15T23:25:01.256Z,8.60
2019-03-15T23:27:04.177Z,8.60
2019-03-15T23:29:07.748Z,8.60
2019-03-15T23:31:10.595Z,8.60
2019-03-15T23:33:14.189Z,8.60
2019-03-15T23:35:17.019Z,8.50
2019-03-15T23:37:20.643Z,8.50
2019-03-15T23:39:23.452Z,8.50
2019-03-15T23:41:27.012Z,8.50
2019-03-15T23:43:29.820Z,8.50
2019-03-15T23:45:33.375Z,8.50
2019-03-15T23:47:36.178Z,8.40
2019-03-15T23:49:39.755Z,8.40
2019-03-15T23:51:42.543Z,8.40
2019-03-15T23:53:46.122Z,8.40
2019-03-15T23:55:48.948Z,8.40
2019-03-15T23:57:52.499Z,8.30
2019-03-15T23:59:55.313Z,8.40
